Time;durP1;ratioP1;P1;durP2;ratioP2;P2;SDS_P1;SDS_P2;PMS_P1;PMS_P2;Temp;Humidity;BMP_temperature;BMP_pressure;BME280_temperature;BME280_humidity;BME280_pressure;Samples;Min_cycle;Max_cycle;Signal;HPM_P1;HPM_P2
2023/09/22 00:00:48;;;;;;;7.03;1.47;;;17.70;98.00;;;;;;5037358;28;20460;-74
2023/09/22 00:03:15;;;;;;;1.30;1.30;;;17.80;98.00;;;;;;5037342;28;20454;-73
2023/09/22 00:05:42;;;;;;;2.93;1.40;;;17.70;98.00;;;;;;5037223;28;20471;-73
2023/09/22 00:08:10;;;;;;;1.90;1.20;;;17.70;98.00;;;;;;5037403;28;20482;-72
2023/09/22 00:10:37;;;;;;;1.50;1.30;;;17.60;98.00;;;;;;5037018;28;20447;-72
2023/09/22 00:13:05;;;;;;;2.03;1.30;;;17.60;98.00;;;;;;5037078;28;20461;-73
2023/09/22 00:15:34;;;;;;;1.30;1.20;;;17.60;98.00;;;;;;5037032;28;20454;-73
2023/09/22 00:18:02;;;;;;;1.30;1.07;;;17.70;98.00;;;;;;5037239;28;20478;-72
2023/09/22 00:20:30;;;;;;;1.40;1.20;;;17.70;98.00;;;;;;5037015;28;20466;-74
2023/09/22 00:22:57;;;;;;;1.40;1.30;;;17.70;98.00;;;;;;5037081;28;20450;-72
2023/09/22 00:25:25;;;;;;;1.70;1.30;;;17.80;98.00;;;;;;5036941;28;20839;-73
2023/09/22 00:27:52;;;;;;;2.47;1.33;;;17.70;98.00;;;;;;5036945;28;20486;-73
2023/09/22 00:30:20;;;;;;;1.43;1.30;;;17.80;98.00;;;;;;5035666;28;20455;-73
2023/09/22 00:32:47;;;;;;;2.77;1.40;;;17.60;98.00;;;;;;5033777;28;20987;-72
2023/09/22 00:35:16;;;;;;;1.60;1.40;;;17.60;98.00;;;;;;5033831;28;20455;-74
2023/09/22 00:37:45;;;;;;;1.63;1.30;;;17.50;98.00;;;;;;5033857;28;20466;-74
2023/09/22 00:40:14;;;;;;;1.60;1.30;;;17.40;98.00;;;;;;5033944;28;20463;-73
2023/09/22 00:42:41;;;;;;;1.60;1.50;;;17.40;98.00;;;;;;5033754;28;20504;-74
2023/09/22 00:45:09;;;;;;;1.47;1.30;;;17.50;98.00;;;;;;5033715;28;20457;-73
2023/09/22 00:47:37;;;;;;;1.30;1.13;;;17.50;98.00;;;;;;5033500;28;20482;-74
2023/09/22 00:50:08;;;;;;;2.97;1.53;;;17.50;98.00;;;;;;5033656;28;20834;-74
2023/09/22 00:52:38;;;;;;;2.63;1.90;;;17.40;98.00;;;;;;5033552;28;20513;-73
2023/09/22 00:55:06;;;;;;;3.50;2.00;;;17.40;98.00;;;;;;5033466;28;20458;-72
2023/09/22 00:57:34;;;;;;;2.63;1.37;;;17.40;98.00;;;;;;5033489;28;20513;-75
2023/09/22 01:00:01;;;;;;;1.80;1.40;;;17.30;98.00;;;;;;5033359;28;20455;-74
2023/09/22 01:02:30;;;;;;;1.60;1.23;;;17.30;98.00;;;;;;5033428;28;20455;-74
2023/09/22 01:04:57;;;;;;;1.70;1.40;;;17.30;98.00;;;;;;5033324;28;20443;-73
2023/09/22 01:07:24;;;;;;;2.57;1.50;;;17.30;98.00;;;;;;5033311;28;20524;-72
2023/09/22 01:09:53;;;;;;;1.60;1.30;;;17.10;98.00;;;;;;5033437;28;20490;-74
2023/09/22 01:12:20;;;;;;;1.80;1.40;;;17.10;98.00;;;;;;5033443;28;20463;-74
2023/09/22 01:14:47;;;;;;;4.03;1.30;;;17.00;98.00;;;;;;5033326;28;20669;-72
2023/09/22 01:17:15;;;;;;;2.43;1.40;;;16.90;98.00;;;;;;5033462;28;20963;-74
2023/09/22 01:19:43;;;;;;;1.80;1.40;;;16.90;98.00;;;;;;5033197;28;20461;-74
2023/09/22 01:22:11;;;;;;;1.80;1.30;;;16.90;98.00;;;;;;5033358;28;20455;-74
2023/09/22 01:24:39;;;;;;;3.50;1.40;;;16.70;98.00;;;;;;5032998;28;20824;-73
2023/09/22 01:27:06;;;;;;;4.93;1.53;;;16.60;98.00;;;;;;5031415;28;20501;-73
2023/09/22 01:29:33;;;;;;;1.60;1.50;;;16.70;98.00;;;;;;5032820;28;21007;-74
2023/09/22 01:32:00;;;;;;;2.47;1.50;;;16.60;98.00;;;;;;5032944;28;20542;-74
2023/09/22 01:34:27;;;;;;;1.70;1.37;;;16.70;98.00;;;;;;5032850;28;20479;-73
2023/09/22 01:36:55;;;;;;;1.90;1.40;;;16.60;98.00;;;;;;5032740;28;20458;-73
2023/09/22 01:39:23;;;;;;;1.70;1.60;;;16.50;98.00;;;;;;5032637;28;20463;-73
2023/09/22 01:41:50;;;;;;;1.53;1.40;;;16.50;98.00;;;;;;5032480;28;20494;-71
2023/09/22 01:44:17;;;;;;;1.70;1.33;;;16.50;98.00;;;;;;5032678;28;20924;-72
2023/09/22 01:46:44;;;;;;;2.13;1.50;;;16.50;98.00;;;;;;5032398;28;20450;-74
2023/09/22 01:49:11;;;;;;;1.73;1.23;;;16.50;98.00;;;;;;5032406;28;20486;-72
2023/09/22 01:51:39;;;;;;;1.90;1.37;;;16.50;98.00;;;;;;5032514;28;20450;-73
2023/09/22 01:54:06;;;;;;;1.80;1.43;;;16.50;98.00;;;;;;5032550;28;20477;-74
2023/09/22 01:56:35;;;;;;;2.17;1.33;;;16.60;98.00;;;;;;5032521;28;20443;-73
2023/09/22 01:59:02;;;;;;;3.50;1.50;;;16.60;98.00;;;;;;5032357;28;20455;-75
2023/09/22 02:01:29;;;;;;;2.33;1.50;;;16.50;98.00;;;;;;5032599;28;20541;-75
2023/09/22 02:03:56;;;;;;;2.90;1.40;;;16.60;98.00;;;;;;5014514;28;20462;-73
2023/09/22 02:06:24;;;;;;;1.63;1.30;;;16.60;98.00;;;;;;5032214;28;20944;-73
2023/09/22 02:08:51;;;;;;;1.60;1.40;;;16.60;98.00;;;;;;5032019;28;20487;-72
2023/09/22 02:11:18;;;;;;;1.40;1.30;;;16.60;98.00;;;;;;5032114;28;20443;-72
2023/09/22 02:13:47;;;;;;;1.90;1.20;;;16.50;98.00;;;;;;5030688;28;20457;-73
2023/09/22 02:16:16;;;;;;;2.83;1.60;;;16.50;98.00;;;;;;5032203;28;20466;-73
2023/09/22 02:18:43;;;;;;;1.40;1.10;;;16.50;98.00;;;;;;5031906;28;20454;-72
2023/09/22 02:21:10;;;;;;;2.20;1.50;;;16.50;98.00;;;;;;5032057;28;20550;-73
2023/09/22 02:23:38;;;;;;;1.43;1.33;;;16.40;98.00;;;;;;5031636;28;20965;-72
2023/09/22 02:26:08;;;;;;;1.60;1.20;;;16.50;98.00;;;;;;5031808;28;20453;-72
2023/09/22 02:28:35;;;;;;;1.53;1.23;;;16.50;98.00;;;;;;5031852;28;20479;-75
2023/09/22 02:31:04;;;;;;;1.83;1.60;;;16.50;98.00;;;;;;5031916;28;20553;-74
2023/09/22 02:33:31;;;;;;;1.77;1.37;;;16.50;98.00;;;;;;5031752;28;20451;-74
2023/09/22 02:35:59;;;;;;;1.80;1.30;;;16.60;98.00;;;;;;5031770;28;20510;-72
2023/09/22 02:38:27;;;;;;;2.00;1.50;;;16.60;98.00;;;;;;5031740;28;20459;-71
2023/09/22 02:40:54;;;;;;;1.63;1.30;;;16.60;98.00;;;;;;5030471;28;20486;-74
2023/09/22 02:43:21;;;;;;;2.63;1.30;;;16.50;98.00;;;;;;5031765;28;20455;-73
2023/09/22 02:45:48;;;;;;;2.27;1.50;;;16.40;98.00;;;;;;5031666;28;20805;-73
2023/09/22 02:48:16;;;;;;;1.43;1.20;;;16.30;98.00;;;;;;5031446;28;20446;-73
2023/09/22 02:50:45;;;;;;;2.33;1.50;;;16.30;98.00;;;;;;5031482;28;20451;-75
2023/09/22 02:53:12;;;;;;;1.97;1.40;;;16.20;98.00;;;;;;5031348;28;20451;-73
2023/09/22 02:55:39;;;;;;;3.10;1.27;;;16.20;98.00;;;;;;5031128;28;20453;-74
2023/09/22 02:58:08;;;;;;;2.67;1.33;;;16.20;98.00;;;;;;5031522;28;20459;-73
2023/09/22 03:00:35;;;;;;;2.10;1.40;;;16.20;98.00;;;;;;5031532;28;20493;-75
2023/09/22 03:03:03;;;;;;;2.10;1.40;;;16.20;98.00;;;;;;5031535;28;20454;-75
2023/09/22 03:05:33;;;;;;;1.40;1.30;;;16.00;98.00;;;;;;5031599;28;20447;-72
2023/09/22 03:08:00;;;;;;;1.83;1.57;;;16.00;98.00;;;;;;5031743;28;20451;-75
2023/09/22 03:10:29;;;;;;;2.40;1.50;;;15.80;98.00;;;;;;5031096;28;20487;-72
2023/09/22 03:12:56;;;;;;;1.70;1.27;;;15.80;98.00;;;;;;5031126;28;20450;-72
2023/09/22 03:15:24;;;;;;;1.70;1.27;;;15.80;98.00;;;;;;5031136;28;20960;-72
2023/09/22 03:17:51;;;;;;;1.97;1.43;;;15.70;98.00;;;;;;5031072;28;20446;-75
2023/09/22 03:20:18;;;;;;;2.37;1.40;;;15.70;98.00;;;;;;5031089;28;20455;-74
2023/09/22 03:22:47;;;;;;;1.43;1.30;;;15.60;98.00;;;;;;5030973;28;20443;-74
2023/09/22 03:25:15;;;;;;;1.93;1.30;;;15.80;98.00;;;;;;5031060;28;20837;-75
2023/09/22 03:27:42;;;;;;;2.10;1.50;;;16.00;98.00;;;;;;5030983;28;20478;-73
2023/09/22 03:30:11;;;;;;;2.30;1.40;;;15.90;98.00;;;;;;5030882;28;20493;-73
2023/09/22 03:32:39;;;;;;;1.80;1.30;;;15.80;98.00;;;;;;5030859;28;20463;-72
2023/09/22 03:35:08;;;;;;;2.30;1.40;;;15.80;98.00;;;;;;5031076;28;20455;-74
2023/09/22 03:37:35;;;;;;;4.03;1.40;;;15.90;98.00;;;;;;5031025;28;21031;-75
2023/09/22 03:40:13;;;;;;;1.80;1.30;;;15.80;98.00;;;;;;5030920;28;20455;-74
2023/09/22 03:42:40;;;;;;;1.47;1.23;;;15.80;98.00;;;;;;5030880;28;20978;-73
2023/09/22 03:45:09;;;;;;;4.23;1.70;;;15.80;98.00;;;;;;5030659;28;20477;-73
2023/09/22 03:47:36;;;;;;;3.03;1.40;;;15.80;98.00;;;;;;5030675;28;20451;-74
2023/09/22 03:50:05;;;;;;;3.43;1.67;;;16.00;98.00;;;;;;5030774;28;20494;-74
2023/09/22 03:52:33;;;;;;;2.07;1.30;;;16.00;98.00;;;;;;5030679;28;20450;-74
2023/09/22 03:55:00;;;;;;;1.40;1.30;;;16.10;98.00;;;;;;5030855;28;20449;-74
2023/09/22 03:57:29;;;;;;;1.50;1.50;;;16.20;98.00;;;;;;5030608;28;20454;-73
2023/09/22 03:59:57;;;;;;;3.53;1.50;;;16.20;98.00;;;;;;5030614;28;20952;-74
2023/09/22 04:02:27;;;;;;;1.67;1.50;;;16.20;98.00;;;;;;5030758;28;20462;-72
2023/09/22 04:04:54;;;;;;;1.67;1.40;;;16.20;98.00;;;;;;5047316;28;20587;-73
2023/09/22 04:07:22;;;;;;;1.57;1.23;;;16.20;98.00;;;;;;5053644;28;20458;-74
2023/09/22 04:09:49;;;;;;;7.73;1.30;;;16.30;98.00;;;;;;5052973;28;20603;-75
2023/09/22 04:12:16;;;;;;;1.63;1.30;;;16.30;98.00;;;;;;5054236;28;20454;-75
2023/09/22 04:14:44;;;;;;;2.23;1.40;;;16.30;98.00;;;;;;5054128;28;20456;-74
2023/09/22 04:17:12;;;;;;;1.93;1.37;;;16.20;98.00;;;;;;5052950;28;20512;-73
2023/09/22 04:19:40;;;;;;;1.40;1.27;;;16.20;98.00;;;;;;5054156;28;20824;-73
2023/09/22 04:22:08;;;;;;;1.70;1.37;;;16.20;98.00;;;;;;5054435;28;20453;-73
2023/09/22 04:24:36;;;;;;;2.63;1.47;;;16.00;98.00;;;;;;5054036;28;20463;-73
2023/09/22 04:27:09;;;;;;;2.50;1.40;;;16.00;98.00;;;;;;5054093;28;20446;-74
2023/09/22 04:29:36;;;;;;;1.40;1.20;;;16.00;98.00;;;;;;5053803;28;20492;-72
2023/09/22 04:32:05;;;;;;;1.70;1.53;;;16.10;98.00;;;;;;5053991;28;20481;-75
2023/09/22 04:34:33;;;;;;;2.00;1.60;;;16.10;98.00;;;;;;5053867;28;20456;-74
2023/09/22 04:37:04;;;;;;;1.50;1.30;;;16.10;98.00;;;;;;5053881;28;20879;-74
2023/09/22 04:39:32;;;;;;;2.60;1.60;;;16.10;98.00;;;;;;5054021;28;20445;-73
2023/09/22 04:42:00;;;;;;;1.97;1.60;;;16.20;98.00;;;;;;5052784;28;20461;-72
2023/09/22 04:44:27;;;;;;;1.67;1.50;;;16.00;98.00;;;;;;5053738;28;20507;-74
2023/09/22 04:46:54;;;;;;;3.43;1.60;;;15.70;98.00;;;;;;5053757;28;20450;-74
2023/09/22 04:49:23;;;;;;;1.93;1.40;;;15.80;98.00;;;;;;5053538;28;20481;-73
2023/09/22 04:51:51;;;;;;;1.63;1.50;;;15.80;98.00;;;;;;5053661;28;20457;-72
2023/09/22 04:54:18;;;;;;;1.80;1.60;;;15.80;98.00;;;;;;5053408;28;20528;-73
2023/09/22 04:56:46;;;;;;;2.20;1.30;;;15.80;98.00;;;;;;5053440;28;20445;-73
2023/09/22 04:59:14;;;;;;;1.70;1.50;;;15.70;98.00;;;;;;5053750;28;20863;-72
2023/09/22 05:01:41;;;;;;;1.63;1.43;;;15.70;98.00;;;;;;5053387;28;20967;-73
2023/09/22 05:04:08;;;;;;;1.60;1.50;;;15.60;98.00;;;;;;5053299;28;20450;-72
2023/09/22 05:06:36;;;;;;;2.30;1.40;;;15.70;98.00;;;;;;5053504;28;20776;-74
2023/09/22 05:09:04;;;;;;;1.60;1.30;;;15.60;98.00;;;;;;5053357;28;20487;-74
2023/09/22 05:11:31;;;;;;;1.70;1.40;;;15.50;98.00;;;;;;5053282;28;20457;-73
2023/09/22 05:13:58;;;;;;;2.90;1.40;;;15.40;98.00;;;;;;5052148;28;20977;-73
2023/09/22 05:16:27;;;;;;;1.90;1.40;;;15.40;98.00;;;;;;5052570;28;20456;-74
2023/09/22 05:18:55;;;;;;;2.40;1.70;;;15.30;98.00;;;;;;5052811;28;20458;-73
2023/09/22 05:21:22;;;;;;;1.77;1.60;;;15.40;98.00;;;;;;5053008;28;20454;-72
2023/09/22 05:23:51;;;;;;;1.80;1.43;;;15.60;98.00;;;;;;5052868;28;20475;-73
2023/09/22 05:26:20;;;;;;;3.57;1.40;;;15.70;98.00;;;;;;5052965;28;20454;-72
2023/09/22 05:28:48;;;;;;;1.90;1.50;;;15.50;98.00;;;;;;5052819;28;20947;-72
2023/09/22 05:31:16;;;;;;;1.67;1.40;;;15.40;98.00;;;;;;5052714;28;20485;-74
2023/09/22 05:33:43;;;;;;;9.27;4.83;;;15.60;98.00;;;;;;5052804;28;20456;-74
2023/09/22 05:36:11;;;;;;;2.90;1.93;;;15.50;98.00;;;;;;5052614;28;20955;-72
2023/09/22 05:38:44;;;;;;;2.40;1.60;;;15.40;98.00;;;;;;5052790;28;20458;-73
2023/09/22 05:41:12;;;;;;;2.43;1.50;;;15.40;98.00;;;;;;5052721;28;20491;-75
2023/09/22 05:43:40;;;;;;;2.00;1.70;;;15.50;98.00;;;;;;5052696;28;20453;-73
2023/09/22 05:46:07;;;;;;;1.70;1.40;;;15.50;98.00;;;;;;5052852;28;20464;-71
2023/09/22 05:48:34;;;;;;;4.33;1.47;;;15.70;98.00;;;;;;5052588;28;20457;-71
2023/09/22 05:51:02;;;;;;;2.10;1.50;;;15.80;98.00;;;;;;5052303;28;20485;-71
2023/09/22 05:53:30;;;;;;;11.93;2.43;;;15.80;98.00;;;;;;5052542;28;20518;-71
2023/09/22 05:56:07;;;;;;;19.33;2.60;;;15.80;98.00;;;;;;5052316;28;20472;-71
2023/09/22 05:58:36;;;;;;;6.50;1.60;;;15.90;98.00;;;;;;5051094;28;20465;-71
2023/09/22 06:01:11;;;;;;;2.97;1.40;;;16.00;98.00;;;;;;5052247;28;20450;-71
2023/09/22 06:03:40;;;;;;;2.27;1.60;;;16.00;98.00;;;;;;5052388;28;20441;-71
2023/09/22 06:06:09;;;;;;;9.53;1.90;;;16.10;98.00;;;;;;5052294;28;20784;-71
2023/09/22 06:08:37;;;;;;;2.97;1.70;;;16.00;98.00;;;;;;5052174;28;20547;-71
2023/09/22 06:11:04;;;;;;;4.03;1.87;;;15.90;98.00;;;;;;5051953;28;20573;-71
2023/09/22 06:13:32;;;;;;;4.40;2.50;;;15.80;98.00;;;;;;5052211;28;20751;-71
2023/09/22 06:16:00;;;;;;;3.83;2.30;;;15.80;98.00;;;;;;5052090;28;20524;-71
2023/09/22 06:18:28;;;;;;;8.73;4.40;;;15.70;98.00;;;;;;5052173;28;20449;-70
2023/09/22 06:20:56;;;;;;;4.40;2.00;;;15.70;98.00;;;;;;5052166;28;20454;-71
2023/09/22 06:23:23;;;;;;;4.03;1.93;;;15.90;98.00;;;;;;5051947;28;20489;-72
2023/09/22 06:25:51;;;;;;;3.57;1.40;;;16.00;98.00;;;;;;5052072;28;20454;-72
2023/09/22 06:28:18;;;;;;;1.90;1.43;;;15.90;98.00;;;;;;5051421;28;20540;-71
2023/09/22 06:30:46;;;;;;;2.63;1.77;;;15.90;98.00;;;;;;5051811;28;21010;-76
2023/09/22 06:33:16;;;;;;;6.23;1.43;;;15.80;98.00;;;;;;5051876;28;20485;-76
2023/09/22 06:35:43;;;;;;;19.93;2.63;;;15.80;98.00;;;;;;5051988;28;20964;-76
2023/09/22 06:38:10;;;;;;;13.93;2.23;;;15.90;98.00;;;;;;5051792;28;20522;-76
2023/09/22 06:40:38;;;;;;;3.57;1.73;;;15.90;98.00;;;;;;5051576;28;20662;-76
2023/09/22 06:43:08;;;;;;;5.53;1.70;;;16.10;98.00;;;;;;5051629;28;20458;-76
2023/09/22 06:45:36;;;;;;;2.77;1.40;;;16.20;98.00;;;;;;5051531;28;20512;-75
2023/09/22 06:48:05;;;;;;;2.70;1.70;;;16.20;98.00;;;;;;5051609;28;20450;-75
2023/09/22 06:50:37;;;;;;;3.10;2.00;;;16.20;98.00;;;;;;5050042;28;20483;-75
2023/09/22 06:53:05;;;;;;;2.73;1.50;;;16.20;98.00;;;;;;5051709;28;20479;-75
2023/09/22 06:55:32;;;;;;;2.20;1.50;;;16.20;98.00;;;;;;5051533;28;20450;-75
2023/09/22 06:58:00;;;;;;;2.90;1.50;;;16.10;98.00;;;;;;5051567;28;20454;-75
2023/09/22 07:00:28;;;;;;;4.10;1.73;;;16.20;98.00;;;;;;5051414;28;20489;-75
2023/09/22 07:02:56;;;;;;;2.43;1.80;;;16.20;98.00;;;;;;5052011;28;20860;-75
2023/09/22 07:05:24;;;;;;;4.30;2.40;;;16.00;98.00;;;;;;5050569;28;20810;-75
2023/09/22 07:07:53;;;;;;;3.03;2.17;;;16.00;98.00;;;;;;5049963;28;20449;-75
2023/09/22 07:10:21;;;;;;;3.17;2.10;;;15.90;98.00;;;;;;5051020;28;21003;-75
2023/09/22 07:12:48;;;;;;;3.97;2.20;;;15.90;98.00;;;;;;5051229;28;20531;-75
2023/09/22 07:15:15;;;;;;;2.30;1.60;;;15.90;98.00;;;;;;5050962;28;20446;-75
2023/09/22 07:17:44;;;;;;;1.90;1.40;;;16.00;98.00;;;;;;5049813;28;20458;-69
2023/09/22 07:20:14;;;;;;;5.80;1.70;;;16.20;98.00;;;;;;5051236;28;20481;-68
2023/09/22 07:22:42;;;;;;;4.17;1.57;;;16.60;98.00;;;;;;5050900;28;20492;-68
2023/09/22 07:25:11;;;;;;;2.00;1.83;;;17.00;98.00;;;;;;5050753;28;20458;-68
2023/09/22 07:27:39;;;;;;;4.77;1.60;;;17.50;98.00;;;;;;5050838;28;20454;-69
2023/09/22 07:30:09;;;;;;;7.77;1.80;;;17.80;98.00;;;;;;5050890;28;20571;-69
2023/09/22 07:32:37;;;;;;;1.80;1.50;;;17.90;98.00;;;;;;5051014;28;20533;-69
2023/09/22 07:35:05;;;;;;;1.60;1.33;;;17.90;98.00;;;;;;5051092;28;20450;-69
2023/09/22 07:37:32;;;;;;;2.70;1.50;;;17.90;98.00;;;;;;5050975;28;20496;-68
2023/09/22 07:40:00;;;;;;;4.73;1.70;;;17.80;98.00;;;;;;5050646;28;20466;-68
2023/09/22 07:42:31;;;;;;;2.17;1.67;;;18.00;98.00;;;;;;5054971;28;20450;-69
2023/09/22 07:44:59;;;;;;;2.47;1.50;;;18.10;98.00;;;;;;5054807;28;20453;-70
2023/09/22 07:47:26;;;;;;;1.90;1.50;;;18.20;98.00;;;;;;5055102;28;20898;-68
2023/09/22 07:49:55;;;;;;;3.13;1.77;;;18.40;98.00;;;;;;5033408;28;20512;-68
2023/09/22 07:52:22;;;;;;;2.77;1.97;;;18.80;98.00;;;;;;5034555;28;20497;-67
2023/09/22 07:54:50;;;;;;;3.70;2.10;;;19.10;98.00;;;;;;5034337;28;20457;-68
2023/09/22 07:57:23;;;;;;;2.57;2.03;;;19.30;98.00;;;;;;5034657;28;20454;-68
2023/09/22 07:59:51;;;;;;;3.23;1.93;;;19.40;98.00;;;;;;5034792;28;20452;-76
2023/09/22 08:02:18;;;;;;;6.20;2.90;;;19.30;98.00;;;;;;5034825;28;20450;-76
2023/09/22 08:04:45;;;;;;;5.00;3.10;;;19.10;98.00;;;;;;5034519;28;20478;-76
2023/09/22 08:07:13;;;;;;;5.70;3.63;;;18.90;98.00;;;;;;5033816;28;20454;-75
2023/09/22 08:09:40;;;;;;;5.03;3.60;;;18.80;98.00;;;;;;5034163;28;20458;-75
2023/09/22 08:12:08;;;;;;;7.50;4.00;;;18.70;98.00;;;;;;5034324;28;20469;-75
2023/09/22 08:14:36;;;;;;;9.47;3.10;;;18.60;98.00;;;;;;5034241;28;20822;-75
2023/09/22 08:17:06;;;;;;;7.50;2.57;;;18.60;98.00;;;;;;5034262;28;20457;-76
2023/09/22 08:19:33;;;;;;;2.23;1.97;;;18.60;98.00;;;;;;5034088;28;20497;-75
2023/09/22 08:22:00;;;;;;;3.83;1.93;;;18.60;98.00;;;;;;5033959;28;20486;-75
2023/09/22 08:24:28;;;;;;;2.90;1.97;;;18.60;98.00;;;;;;5033950;28;20470;-75
2023/09/22 08:26:55;;;;;;;3.30;1.93;;;18.50;98.00;;;;;;5034212;28;20446;-75
2023/09/22 08:29:23;;;;;;;2.80;2.10;;;18.20;98.00;;;;;;5033851;28;20987;-75
2023/09/22 08:31:51;;;;;;;2.10;1.70;;;18.00;98.00;;;;;;5032623;28;20522;-75
2023/09/22 08:34:20;;;;;;;2.40;1.90;;;18.00;98.00;;;;;;5033654;28;20451;-75
2023/09/22 08:36:47;;;;;;;3.97;2.20;;;18.00;98.00;;;;;;5033626;28;21031;-75
2023/09/22 08:39:15;;;;;;;2.30;2.03;;;17.80;98.00;;;;;;5033518;28;20451;-75
2023/09/22 08:41:45;;;;;;;4.20;2.10;;;17.80;98.00;;;;;;5033829;28;20949;-75
2023/09/22 08:44:13;;;;;;;2.73;2.03;;;17.60;98.00;;;;;;5032472;28;20536;-76
2023/09/22 08:46:41;;;;;;;2.30;1.80;;;17.60;98.00;;;;;;5033553;28;20505;-75
2023/09/22 08:49:09;;;;;;;2.93;2.10;;;17.60;98.00;;;;;;5033580;28;20451;-76
2023/09/22 08:51:38;;;;;;;5.70;1.90;;;17.80;98.00;;;;;;5032807;28;20487;-75
2023/09/22 08:54:06;;;;;;;3.27;2.20;;;17.90;98.00;;;;;;5033545;28;20525;-75
2023/09/22 08:56:35;;;;;;;1.90;1.40;;;17.80;98.00;;;;;;5033449;28;20455;-75
2023/09/22 08:59:03;;;;;;;3.93;1.80;;;17.70;98.00;;;;;;5032411;28;20454;-75
2023/09/22 09:01:31;;;;;;;5.00;1.87;;;17.80;98.00;;;;;;5033336;28;20455;-76
2023/09/22 09:04:01;;;;;;;16.13;7.20;;;17.90;98.00;;;;;;5033427;28;20492;-75
2023/09/22 09:06:46;;;;;;;4.50;2.73;;;17.90;98.00;;;;;;5032979;28;20449;-75
2023/09/22 09:09:13;;;;;;;1.97;1.60;;;18.00;98.00;;;;;;5033537;28;20494;-75
2023/09/22 09:11:58;;;;;;;2.63;1.70;;;18.10;98.00;;;;;;5033993;28;20490;-75
2023/09/22 09:14:28;;;;;;;2.73;1.60;;;18.10;98.00;;;;;;5033023;28;20947;-76
2023/09/22 09:16:56;;;;;;;3.67;2.00;;;18.20;98.00;;;;;;5032992;28;20512;-76
2023/09/22 09:19:26;;;;;;;1.60;1.33;;;18.20;98.00;;;;;;5032957;28;20466;-76
2023/09/22 09:22:09;;;;;;;2.67;1.90;;;18.30;98.00;;;;;;5032970;28;20451;-75
2023/09/22 09:24:37;;;;;;;1.90;1.50;;;18.40;98.00;;;;;;5032551;28;20463;-75
2023/09/22 09:27:17;;;;;;;1.40;1.40;;;18.30;98.00;;;;;;5032719;28;20841;-75
2023/09/22 09:29:46;;;;;;;1.50;1.40;;;18.40;98.00;;;;;;5032905;28;20806;-76
2023/09/22 09:32:24;;;;;;;6.17;1.60;;;18.40;98.00;;;;;;5032904;28;20608;-75
2023/09/22 09:34:52;;;;;;;13.03;2.20;;;18.50;98.00;;;;;;5032811;28;20486;-75
2023/09/22 09:37:21;;;;;;;2.27;1.50;;;18.50;98.00;;;;;;5032999;28;20478;-75
2023/09/22 09:39:50;;;;;;;3.50;1.60;;;18.40;98.00;;;;;;5032740;28;20450;-75
2023/09/22 09:42:19;;;;;;;1.93;1.67;;;18.40;98.00;;;;;;5032732;28;20498;-75
2023/09/22 09:44:49;;;;;;;1.90;1.67;;;18.30;98.00;;;;;;5032740;28;20450;-75
2023/09/22 09:47:24;;;;;;;3.07;1.80;;;18.20;98.00;;;;;;5033063;28;20451;-75
2023/09/22 09:49:53;;;;;;;2.53;1.93;;;18.20;98.00;;;;;;5033150;28;20966;-76
2023/09/22 09:52:31;;;;;;;9.57;1.80;;;18.20;98.00;;;;;;5033037;28;20552;-75
2023/09/22 09:55:10;;;;;;;2.43;1.60;;;18.30;98.00;;;;;;5015156;28;20448;-75
2023/09/22 09:57:39;;;;;;;2.27;1.73;;;18.30;98.00;;;;;;4997536;28;20476;-76
2023/09/22 10:00:14;;;;;;;2.30;1.70;;;18.20;98.00;;;;;;4993511;28;20484;-76
2023/09/22 10:02:44;;;;;;;3.40;1.70;;;18.20;98.00;;;;;;4993573;28;20510;-76
2023/09/22 10:05:14;;;;;;;2.10;1.40;;;18.10;98.00;;;;;;4993361;28;20491;-76
2023/09/22 10:07:43;;;;;;;2.47;1.70;;;18.00;98.00;;;;;;4993329;28;20461;-76
2023/09/22 10:10:12;;;;;;;3.20;1.70;;;18.00;98.00;;;;;;4993118;28;20479;-76
2023/09/22 10:12:40;;;;;;;1.77;1.40;;;18.00;98.00;;;;;;4993204;28;20527;-76
2023/09/22 10:15:08;;;;;;;1.90;1.40;;;18.10;98.00;;;;;;4993305;28;20492;-75
2023/09/22 10:17:55;;;;;;;1.70;1.37;;;18.10;98.00;;;;;;4993341;28;20468;-75
2023/09/22 10:20:43;;;;;;;2.00;1.70;;;18.20;98.00;;;;;;4993888;28;20983;-74
2023/09/22 10:23:22;;;;;;;4.03;2.80;;;18.20;98.00;;;;;;4992584;28;20870;-76
2023/09/22 10:26:16;;;;;;;6.00;3.37;;;18.20;98.00;;;;;;4993518;28;20468;-76
2023/09/22 10:28:44;;;;;;;6.73;2.90;;;18.30;98.00;;;;;;4992813;28;20507;-76
2023/09/22 10:31:11;;;;;;;2.97;1.70;;;18.30;98.00;;;;;;4992722;28;21052;-76
2023/09/22 10:33:38;;;;;;;2.37;1.87;;;18.40;98.00;;;;;;5029455;28;20470;-77
2023/09/22 10:36:07;;;;;;;2.53;1.60;;;18.60;98.00;;;;;;5031881;28;20476;-77
2023/09/22 10:38:58;;;;;;;1.40;1.40;;;18.80;98.00;;;;;;5032137;28;20824;-76
2023/09/22 10:41:25;;;;;;;1.60;1.37;;;18.80;98.00;;;;;;5028405;28;20879;-76
2023/09/22 10:44:00;;;;;;;3.33;1.57;;;19.00;98.00;;;;;;5036973;28;20454;-76
2023/09/22 10:46:27;;;;;;;2.37;1.50;;;19.10;98.00;;;;;;5036026;28;20450;-77
2023/09/22 10:48:54;;;;;;;5.17;1.93;;;19.20;98.00;;;;;;5030926;28;20458;-76
2023/09/22 10:51:25;;;;;;;2.93;1.50;;;19.40;98.00;;;;;;5031915;28;20493;-76
2023/09/22 10:53:59;;;;;;;1.37;1.33;;;19.40;98.00;;;;;;5032134;28;20458;-77
2023/09/22 10:56:26;;;;;;;2.57;1.50;;;19.50;98.00;;;;;;5032011;28;20451;-76
2023/09/22 10:58:54;;;;;;;1.40;1.37;;;19.50;98.00;;;;;;5032117;28;20447;-76
2023/09/22 11:01:22;;;;;;;1.90;1.50;;;19.60;98.00;;;;;;5032001;28;20455;-77
2023/09/22 11:03:53;;;;;;;4.03;1.40;;;19.70;98.00;;;;;;5032034;28;20459;-77
2023/09/22 11:06:21;;;;;;;1.63;1.33;;;19.70;98.00;;;;;;5031923;28;20459;-76
2023/09/22 11:08:51;;;;;;;10.40;2.73;;;19.90;98.00;;;;;;5032245;28;20466;-77
2023/09/22 11:11:20;;;;;;;7.60;1.60;;;20.10;98.00;;;;;;5031776;28;20490;-77
2023/09/22 11:13:54;;;;;;;1.57;1.40;;;20.40;98.00;;;;;;5031999;28;20447;-77
2023/09/22 11:16:24;;;;;;;1.60;1.43;;;20.50;98.00;;;;;;5031265;28;20517;-77
2023/09/22 11:19:04;;;;;;;2.97;1.50;;;20.60;98.00;;;;;;5031521;28;20453;-77
2023/09/22 11:21:38;;;;;;;4.43;1.50;;;20.70;98.00;;;;;;5032003;28;20461;-76
2023/09/22 11:24:07;;;;;;;1.50;1.30;;;20.70;98.00;;;;;;5031853;28;20457;-77
2023/09/22 11:26:42;;;;;;;9.43;1.87;;;20.60;98.00;;;;;;5031665;28;20451;-77
2023/09/22 11:29:10;;;;;;;3.13;1.57;;;20.40;98.00;;;;;;5031785;28;20927;-78
2023/09/22 11:31:49;;;;;;;1.53;1.50;;;20.20;98.00;;;;;;5030978;28;20491;-78
2023/09/22 11:34:20;;;;;;;1.50;1.30;;;20.00;98.00;;;;;;5031534;28;20462;-78
2023/09/22 11:36:48;;;;;;;2.50;1.67;;;19.80;98.00;;;;;;5031586;28;20966;-77
2023/09/22 11:39:25;;;;;;;1.90;1.50;;;19.80;98.00;;;;;;5031603;28;20447;-78
2023/09/22 11:41:57;;;;;;;2.50;1.87;;;20.00;98.00;;;;;;5031315;28;20447;-78
2023/09/22 11:44:25;;;;;;;4.77;2.30;;;20.20;98.00;;;;;;5031406;28;20462;-78
2023/09/22 11:46:52;;;;;;;2.17;1.60;;;20.30;98.00;;;;;;5031153;28;20458;-78
2023/09/22 11:49:20;;;;;;;1.57;1.40;;;20.50;98.00;;;;;;5031157;28;20469;-77
2023/09/22 11:51:50;;;;;;;3.23;1.53;;;21.00;98.00;;;;;;5031117;28;20494;-77
2023/09/22 11:54:21;;;;;;;2.23;1.40;;;21.00;98.00;;;;;;5030098;28;20458;-76
2023/09/22 11:56:49;;;;;;;1.60;1.40;;;21.00;98.00;;;;;;5031118;28;20465;-76
2023/09/22 11:59:18;;;;;;;2.40;1.40;;;21.10;98.00;;;;;;5031373;28;20963;-77
2023/09/22 12:01:47;;;;;;;1.67;1.40;;;21.20;98.00;;;;;;5031175;28;20493;-77
2023/09/22 12:04:22;;;;;;;1.40;1.30;;;21.20;98.00;;;;;;5031203;28;20955;-75
2023/09/22 12:06:50;;;;;;;1.97;1.50;;;21.10;98.00;;;;;;5030011;28;20438;-73
2023/09/22 12:09:17;;;;;;;1.40;1.40;;;20.90;98.00;;;;;;5031282;28;20458;-77
2023/09/22 12:11:45;;;;;;;1.60;1.50;;;20.80;98.00;;;;;;5031069;28;20489;-78
2023/09/22 12:14:12;;;;;;;1.90;1.60;;;20.70;98.00;;;;;;5031182;28;20455;-76
2023/09/22 12:16:41;;;;;;;1.73;1.57;;;20.80;98.00;;;;;;5031177;28;20804;-77
2023/09/22 12:19:08;;;;;;;1.60;1.30;;;20.50;98.00;;;;;;5031314;28;20446;-77
2023/09/22 12:21:36;;;;;;;1.83;1.40;;;20.50;98.00;;;;;;5031393;28;20490;-76
2023/09/22 12:24:03;;;;;;;1.80;1.37;;;20.30;98.00;;;;;;5031262;28;20458;-77
2023/09/22 12:26:30;;;;;;;1.67;1.40;;;20.40;98.00;;;;;;5031410;28;20525;-76
2023/09/22 12:28:58;;;;;;;2.10;1.50;;;20.30;98.00;;;;;;5034951;28;20508;-77
2023/09/22 12:31:28;;;;;;;1.30;1.30;;;20.30;98.00;;;;;;5034763;28;20573;-76
2023/09/22 12:33:56;;;;;;;2.33;1.30;;;20.30;98.00;;;;;;5034906;28;20450;-78
2023/09/22 12:36:23;;;;;;;1.70;1.30;;;20.10;98.00;;;;;;5034716;28;20454;-78
2023/09/22 12:38:51;;;;;;;1.50;1.20;;;20.10;98.00;;;;;;5034760;28;21019;-76
2023/09/22 12:41:20;;;;;;;1.60;1.33;;;20.10;98.00;;;;;;5034686;28;20451;-78
2023/09/22 12:43:47;;;;;;;1.40;1.27;;;20.30;98.00;;;;;;5034762;28;21112;-76
2023/09/22 12:46:14;;;;;;;1.67;1.40;;;20.60;98.00;;;;;;5034775;28;20455;-77
2023/09/22 12:48:43;;;;;;;1.83;1.50;;;20.80;98.00;;;;;;5034554;28;20485;-78
2023/09/22 12:51:12;;;;;;;1.57;1.30;;;20.80;98.00;;;;;;5034701;28;20853;-78
2023/09/22 12:53:39;;;;;;;1.70;1.37;;;20.70;98.00;;;;;;5034698;28;20799;-78